sensor_id;sensor_type;location;lat;lon;timestamp;temperature;humidity
68804;SHT31;55787;52.678;13.314;2022-11-02T00:01:58;6.44;99.99
68804;SHT31;55787;52.678;13.314;2022-11-02T00:04:25;6.44;99.99
68804;SHT31;55787;52.678;13.314;2022-11-02T00:06:51;6.40;99.99
68804;SHT31;55787;52.678;13.314;2022-11-02T00:09:18;6.40;99.99
68804;SHT31;55787;52.678;13.314;2022-11-02T00:11:44;6.37;99.99
68804;SHT31;55787;52.678;13.314;2022-11-02T00:14:11;6.37;99.99
68804;SHT31;55787;52.678;13.314;2022-11-02T00:16:38;6.34;99.99
68804;SHT31;55787;52.678;13.314;2022-11-02T00:19:06;6.35;99.99
68804;SHT31;55787;52.678;13.314;2022-11-02T00:21:34;6.31;99.99
68804;SHT31;55787;52.678;13.314;2022-11-02T00:24:02;6.28;99.99
68804;SHT31;55787;52.678;13.314;2022-11-02T00:26:32;6.24;99.99
68804;SHT31;55787;52.678;13.314;2022-11-02T00:29:00;6.24;99.99
68804;SHT31;55787;52.678;13.314;2022-11-02T00:31:27;6.21;99.99
68804;SHT31;55787;52.678;13.314;2022-11-02T00:33:53;6.18;99.99
68804;SHT31;55787;52.678;13.314;2022-11-02T00:36:20;6.20;99.99
68804;SHT31;55787;52.678;13.314;2022-11-02T00:38:47;6.16;99.99
68804;SHT31;55787;52.678;13.314;2022-11-02T00:41:14;6.14;99.99
68804;SHT31;55787;52.678;13.314;2022-11-02T00:43:41;6.13;99.99
68804;SHT31;55787;52.678;13.314;2022-11-02T00:46:08;6.10;99.99
68804;SHT31;55787;52.678;13.314;2022-11-02T00:48:35;6.04;99.99
68804;SHT31;55787;52.678;13.314;2022-11-02T00:51:01;6.00;99.99
68804;SHT31;55787;52.678;13.314;2022-11-02T00:53:28;5.96;99.99
68804;SHT31;55787;52.678;13.314;2022-11-02T00:55:54;5.93;99.99
68804;SHT31;55787;52.678;13.314;2022-11-02T00:58:21;5.90;99.99
68804;SHT31;55787;52.678;13.314;2022-11-02T01:00:47;5.92;99.99
68804;SHT31;55787;52.678;13.314;2022-11-02T01:03:14;5.89;99.99
68804;SHT31;55787;52.678;13.314;2022-11-02T01:05:41;5.86;99.99
68804;SHT31;55787;52.678;13.314;2022-11-02T01:08:07;5.80;99.99
68804;SHT31;55787;52.678;13.314;2022-11-02T01:10:34;5.80;99.99
68804;SHT31;55787;52.678;13.314;2022-11-02T01:13:00;5.77;99.99
68804;SHT31;55787;52.678;13.314;2022-11-02T01:15:27;5.79;99.99
68804;SHT31;55787;52.678;13.314;2022-11-02T01:17:54;5.74;99.99
68804;SHT31;55787;52.678;13.314;2022-11-02T01:20:20;5.76;99.99
68804;SHT31;55787;52.678;13.314;2022-11-02T01:22:47;5.74;99.99
68804;SHT31;55787;52.678;13.314;2022-11-02T01:25:14;5.76;99.99
68804;SHT31;55787;52.678;13.314;2022-11-02T01:27:42;5.74;99.99
68804;SHT31;55787;52.678;13.314;2022-11-02T01:30:09;5.72;99.99
68804;SHT31;55787;52.678;13.314;2022-11-02T01:32:36;5.73;99.99
68804;SHT31;55787;52.678;13.314;2022-11-02T01:35:02;5.77;99.99
68804;SHT31;55787;52.678;13.314;2022-11-02T01:37:29;5.83;99.99
68804;SHT31;55787;52.678;13.314;2022-11-02T01:39:56;5.89;99.99
68804;SHT31;55787;52.678;13.314;2022-11-02T01:42:26;5.89;99.99
68804;SHT31;55787;52.678;13.314;2022-11-02T01:44:53;5.85;99.99
68804;SHT31;55787;52.678;13.314;2022-11-02T01:47:27;5.92;99.99
68804;SHT31;55787;52.678;13.314;2022-11-02T01:50:19;5.93;99.99
68804;SHT31;55787;52.678;13.314;2022-11-02T01:52:46;5.93;99.99
68804;SHT31;55787;52.678;13.314;2022-11-02T01:55:25;5.92;99.99
68804;SHT31;55787;52.678;13.314;2022-11-02T01:57:56;5.87;99.99
68804;SHT31;55787;52.678;13.314;2022-11-02T02:00:23;5.85;99.99
68804;SHT31;55787;52.678;13.314;2022-11-02T02:03:04;5.82;99.99
68804;SHT31;55787;52.678;13.314;2022-11-02T02:05:34;5.77;99.99
68804;SHT31;55787;52.678;13.314;2022-11-02T02:08:04;5.67;99.99
68804;SHT31;55787;52.678;13.314;2022-11-02T02:10:31;5.65;99.99
68804;SHT31;55787;52.678;13.314;2022-11-02T02:12:57;5.66;99.99
68804;SHT31;55787;52.678;13.314;2022-11-02T02:15:33;5.60;99.99
68804;SHT31;55787;52.678;13.314;2022-11-02T02:18:09;5.53;99.99
68804;SHT31;55787;52.678;13.314;2022-11-02T02:20:58;5.52;99.99
68804;SHT31;55787;52.678;13.314;2022-11-02T02:26:41;5.46;99.99
68804;SHT31;55787;52.678;13.314;2022-11-02T02:32:04;5.45;99.99
68804;SHT31;55787;52.678;13.314;2022-11-02T02:35:02;5.42;99.99
68804;SHT31;55787;52.678;13.314;2022-11-02T02:37:36;5.38;99.99
68804;SHT31;55787;52.678;13.314;2022-11-02T02:40:09;5.38;99.99
68804;SHT31;55787;52.678;13.314;2022-11-02T02:42:47;5.35;99.99
68804;SHT31;55787;52.678;13.314;2022-11-02T02:47:50;5.34;99.99
68804;SHT31;55787;52.678;13.314;2022-11-02T02:50:26;5.35;99.99
68804;SHT31;55787;52.678;13.314;2022-11-02T02:52:55;5.31;99.99
68804;SHT31;55787;52.678;13.314;2022-11-02T02:55:30;5.34;99.99
68804;SHT31;55787;52.678;13.314;2022-11-02T02:58:00;5.34;99.99
68804;SHT31;55787;52.678;13.314;2022-11-02T03:00:29;5.32;99.99
68804;SHT31;55787;52.678;13.314;2022-11-02T03:02:56;5.30;99.99
68804;SHT31;55787;52.678;13.314;2022-11-02T03:07:54;5.39;99.99
68804;SHT31;55787;52.678;13.314;2022-11-02T03:10:57;5.43;99.99
68804;SHT31;55787;52.678;13.314;2022-11-02T03:13:41;5.43;99.99
68804;SHT31;55787;52.678;13.314;2022-11-02T03:19:23;5.36;99.99
68804;SHT31;55787;52.678;13.314;2022-11-02T03:22:40;5.35;99.99
68804;SHT31;55787;52.678;13.314;2022-11-02T03:24:56;5.32;99.99
68804;SHT31;55787;52.678;13.314;2022-11-02T03:30:13;5.24;99.99
68804;SHT31;55787;52.678;13.314;2022-11-02T03:32:50;5.24;99.99
68804;SHT31;55787;52.678;13.314;2022-11-02T03:35:40;5.27;99.99
68804;SHT31;55787;52.678;13.314;2022-11-02T03:38:18;5.20;99.99
68804;SHT31;55787;52.678;13.314;2022-11-02T03:40:49;5.12;99.99
68804;SHT31;55787;52.678;13.314;2022-11-02T03:43:19;5.14;99.99
68804;SHT31;55787;52.678;13.314;2022-11-02T03:45:54;5.15;99.99
68804;SHT31;55787;52.678;13.314;2022-11-02T03:48:25;5.10;99.99
68804;SHT31;55787;52.678;13.314;2022-11-02T03:50:56;5.10;99.99
68804;SHT31;55787;52.678;13.314;2022-11-02T03:53:33;5.10;99.99
68804;SHT31;55787;52.678;13.314;2022-11-02T03:56:06;5.10;99.99
68804;SHT31;55787;52.678;13.314;2022-11-02T03:58:34;5.10;99.99
68804;SHT31;55787;52.678;13.314;2022-11-02T04:01:03;5.07;99.99
68804;SHT31;55787;52.678;13.314;2022-11-02T04:03:31;5.10;99.99
68804;SHT31;55787;52.678;13.314;2022-11-02T04:05:59;5.07;99.99
68804;SHT31;55787;52.678;13.314;2022-11-02T04:08:33;5.05;99.99
68804;SHT31;55787;52.678;13.314;2022-11-02T04:11:01;5.07;99.99
68804;SHT31;55787;52.678;13.314;2022-11-02T04:13:46;5.08;99.99
68804;SHT31;55787;52.678;13.314;2022-11-02T04:16:31;5.12;99.99
68804;SHT31;55787;52.678;13.314;2022-11-02T04:18:58;5.11;99.99
68804;SHT31;55787;52.678;13.314;2022-11-02T04:21:43;5.11;99.99
68804;SHT31;55787;52.678;13.314;2022-11-02T04:24:30;5.12;99.99
68804;SHT31;55787;52.678;13.314;2022-11-02T04:27:15;5.05;99.99
68804;SHT31;55787;52.678;13.314;2022-11-02T04:29:46;5.02;99.99
68804;SHT31;55787;52.678;13.314;2022-11-02T04:32:13;5.00;99.99
68804;SHT31;55787;52.678;13.314;2022-11-02T04:34:40;4.95;99.99
68804;SHT31;55787;52.678;13.314;2022-11-02T04:37:06;4.95;99.99
68804;SHT31;55787;52.678;13.314;2022-11-02T04:39:53;4.93;99.99
68804;SHT31;55787;52.678;13.314;2022-11-02T04:42:19;4.88;99.99
68804;SHT31;55787;52.678;13.314;2022-11-02T04:44:46;4.87;99.99
68804;SHT31;55787;52.678;13.314;2022-11-02T04:47:12;4.87;99.99
68804;SHT31;55787;52.678;13.314;2022-11-02T04:49:39;4.83;99.99
68804;SHT31;55787;52.678;13.314;2022-11-02T04:52:05;4.77;99.99
68804;SHT31;55787;52.678;13.314;2022-11-02T04:54:32;4.74;99.99
68804;SHT31;55787;52.678;13.314;2022-11-02T04:56:59;4.74;99.99
68804;SHT31;55787;52.678;13.314;2022-11-02T04:59:25;4.74;99.99
68804;SHT31;55787;52.678;13.314;2022-11-02T05:01:52;4.73;99.99
68804;SHT31;55787;52.678;13.314;2022-11-02T05:04:18;4.73;99.99
68804;SHT31;55787;52.678;13.314;2022-11-02T05:06:45;4.71;99.99
68804;SHT31;55787;52.678;13.314;2022-11-02T05:09:11;4.67;99.99
68804;SHT31;55787;52.678;13.314;2022-11-02T05:11:38;4.66;99.99
68804;SHT31;55787;52.678;13.314;2022-11-02T05:14:04;4.67;99.99
68804;SHT31;55787;52.678;13.314;2022-11-02T05:16:31;4.70;99.99
68804;SHT31;55787;52.678;13.314;2022-11-02T05:18:58;4.70;99.99
68804;SHT31;55787;52.678;13.314;2022-11-02T05:21:24;4.69;99.99
68804;SHT31;55787;52.678;13.314;2022-11-02T05:23:51;4.71;99.99
68804;SHT31;55787;52.678;13.314;2022-11-02T05:26:18;4.71;99.99
68804;SHT31;55787;52.678;13.314;2022-11-02T05:28:45;4.76;99.99
68804;SHT31;55787;52.678;13.314;2022-11-02T05:31:11;4.77;99.99
68804;SHT31;55787;52.678;13.314;2022-11-02T05:33:38;4.79;99.99
68804;SHT31;55787;52.678;13.314;2022-11-02T05:36:04;4.85;99.99
68804;SHT31;55787;52.678;13.314;2022-11-02T05:38:31;4.85;99.99
68804;SHT31;55787;52.678;13.314;2022-11-02T05:40:58;4.95;99.99
68804;SHT31;55787;52.678;13.314;2022-11-02T05:43:25;4.94;99.99
68804;SHT31;55787;52.678;13.314;2022-11-02T05:45:57;4.95;99.99
68804;SHT31;55787;52.678;13.314;2022-11-02T05:48:25;4.95;99.99
68804;SHT31;55787;52.678;13.314;2022-11-02T05:50:56;4.98;99.99
68804;SHT31;55787;52.678;13.314;2022-11-02T05:53:23;5.05;99.99
68804;SHT31;55787;52.678;13.314;2022-11-02T05:55:50;5.01;99.99
68804;SHT31;55787;52.678;13.314;2022-11-02T05:58:17;4.98;99.99
68804;SHT31;55787;52.678;13.314;2022-11-02T06:00:44;5.01;99.99
68804;SHT31;55787;52.678;13.314;2022-11-02T06:03:10;5.04;99.99
68804;SHT31;55787;52.678;13.314;2022-11-02T06:05:37;5.08;99.99
68804;SHT31;55787;52.678;13.314;2022-11-02T06:08:04;5.14;99.99
68804;SHT31;55787;52.678;13.314;2022-11-02T06:10:31;5.20;99.99
68804;SHT31;55787;52.678;13.314;2022-11-02T06:12:59;5.25;99.99
68804;SHT31;55787;52.678;13.314;2022-11-02T06:15:27;5.38;99.99
68804;SHT31;55787;52.678;13.314;2022-11-02T06:17:54;5.48;99.99
68804;SHT31;55787;52.678;13.314;2022-11-02T06:20:21;5.51;99.99
68804;SHT31;55787;52.678;13.314;2022-11-02T06:22:48;5.49;99.99
68804;SHT31;55787;52.678;13.314;2022-11-02T06:25:14;5.53;99.99
68804;SHT31;55787;52.678;13.314;2022-11-02T06:27:49;5.62;99.99
68804;SHT31;55787;52.678;13.314;2022-11-02T06:30:16;5.63;99.99
68804;SHT31;55787;52.678;13.314;2022-11-02T06:32:48;5.60;99.99
68804;SHT31;55787;52.678;13.314;2022-11-02T06:35:16;5.58;99.99
68804;SHT31;55787;52.678;13.314;2022-11-02T06:37:43;5.56;99.99
68804;SHT31;55787;52.678;13.314;2022-11-02T06:40:11;5.56;99.99
68804;SHT31;55787;52.678;13.314;2022-11-02T06:42:38;5.52;99.99
68804;SHT31;55787;52.678;13.314;2022-11-02T06:45:22;5.53;99.99
68804;SHT31;55787;52.678;13.314;2022-11-02T06:47:49;5.56;99.99
68804;SHT31;55787;52.678;13.314;2022-11-02T06:50:16;5.63;99.99
68804;SHT31;55787;52.678;13.314;2022-11-02T06:52:45;5.67;99.99
68804;SHT31;55787;52.678;13.314;2022-11-02T06:55:12;5.73;99.99
68804;SHT31;55787;52.678;13.314;2022-11-02T06:57:41;5.77;99.99
68804;SHT31;55787;52.678;13.314;2022-11-02T07:00:11;5.77;99.99
68804;SHT31;55787;52.678;13.314;2022-11-02T07:02:57;5.83;99.99
68804;SHT31;55787;52.678;13.314;2022-11-02T07:05:24;5.90;99.99
68804;SHT31;55787;52.678;13.314;2022-11-02T07:07:53;6.06;99.99
68804;SHT31;55787;52.678;13.314;2022-11-02T07:10:20;6.14;99.99
68804;SHT31;55787;52.678;13.314;2022-11-02T07:12:50;6.21;99.99
68804;SHT31;55787;52.678;13.314;2022-11-02T07:15:17;6.28;99.99
68804;SHT31;55787;52.678;13.314;2022-11-02T07:17:43;6.37;99.99
68804;SHT31;55787;52.678;13.314;2022-11-02T07:20:10;6.45;99.99
68804;SHT31;55787;52.678;13.314;2022-11-02T07:22:36;6.81;99.99
68804;SHT31;55787;52.678;13.314;2022-11-02T07:25:03;6.81;99.99
68804;SHT31;55787;52.678;13.314;2022-11-02T07:27:30;6.88;99.99
68804;SHT31;55787;52.678;13.314;2022-11-02T07:29:57;7.14;99.99
68804;SHT31;55787;52.678;13.314;2022-11-02T07:32:23;7.58;99.99
68804;SHT31;55787;52.678;13.314;2022-11-02T07:34:51;7.88;99.31
68804;SHT31;55787;52.678;13.314;2022-11-02T07:37:17;8.10;98.59
68804;SHT31;55787;52.678;13.314;2022-11-02T07:39:44;8.29;99.43
68804;SHT31;55787;52.678;13.314;2022-11-02T07:42:10;8.65;96.89
68804;SHT31;55787;52.678;13.314;2022-11-02T07:44:37;8.88;95.59
68804;SHT31;55787;52.678;13.314;2022-11-02T07:47:04;9.10;95.76
68804;SHT31;55787;52.678;13.314;2022-11-02T07:49:30;9.28;92.75
68804;SHT31;55787;52.678;13.314;2022-11-02T07:51:57;9.43;93.47
68804;SHT31;55787;52.678;13.314;2022-11-02T07:54:24;9.56;95.23
68804;SHT31;55787;52.678;13.314;2022-11-02T07:56:52;9.57;93.52
68804;SHT31;55787;52.678;13.314;2022-11-02T07:59:18;9.57;93.49
68804;SHT31;55787;52.678;13.314;2022-11-02T08:01:45;9.62;91.14
68804;SHT31;55787;52.678;13.314;2022-11-02T08:04:11;9.55;92.57
68804;SHT31;55787;52.678;13.314;2022-11-02T08:06:38;9.63;91.00
68804;SHT31;55787;52.678;13.314;2022-11-02T08:09:05;9.70;90.60
68804;SHT31;55787;52.678;13.314;2022-11-02T08:11:31;9.70;91.83
68804;SHT31;55787;52.678;13.314;2022-11-02T08:13:58;9.76;91.41
68804;SHT31;55787;52.678;13.314;2022-11-02T08:16:24;9.93;91.51
68804;SHT31;55787;52.678;13.314;2022-11-02T08:18:51;10.07;90.75
68804;SHT31;55787;52.678;13.314;2022-11-02T08:21:17;10.34;92.16
68804;SHT31;55787;52.678;13.314;2022-11-02T08:23:44;10.62;90.57
68804;SHT31;55787;52.678;13.314;2022-11-02T08:26:11;10.63;87.53
68804;SHT31;55787;52.678;13.314;2022-11-02T08:28:37;10.61;88.01
68804;SHT31;55787;52.678;13.314;2022-11-02T08:31:06;10.52;88.63
68804;SHT31;55787;52.678;13.314;2022-11-02T08:33:38;10.45;87.88
68804;SHT31;55787;52.678;13.314;2022-11-02T08:36:05;10.44;89.34
68804;SHT31;55787;52.678;13.314;2022-11-02T08:38:31;10.45;88.81
68804;SHT31;55787;52.678;13.314;2022-11-02T08:40:58;10.49;88.54
68804;SHT31;55787;52.678;13.314;2022-11-02T08:43:24;10.56;88.28
68804;SHT31;55787;52.678;13.314;2022-11-02T08:45:51;10.76;88.35
68804;SHT31;55787;52.678;13.314;2022-11-02T08:48:38;10.97;87.78
68804;SHT31;55787;52.678;13.314;2022-11-02T08:51:05;11.14;87.15
68804;SHT31;55787;52.678;13.314;2022-11-02T08:53:34;11.24;86.00
68804;SHT31;55787;52.678;13.314;2022-11-02T08:56:00;11.40;84.78
68804;SHT31;55787;52.678;13.314;2022-11-02T08:58:27;11.47;85.56
68804;SHT31;55787;52.678;13.314;2022-11-02T09:00:54;11.60;86.38
68804;SHT31;55787;52.678;13.314;2022-11-02T09:03:20;11.84;84.10
68804;SHT31;55787;52.678;13.314;2022-11-02T09:06:00;12.91;82.52
68804;SHT31;55787;52.678;13.314;2022-11-02T09:08:27;13.63;76.86
68804;SHT31;55787;52.678;13.314;2022-11-02T09:10:58;14.41;74.64
68804;SHT31;55787;52.678;13.314;2022-11-02T09:13:25;15.26;72.12
68804;SHT31;55787;52.678;13.314;2022-11-02T09:15:55;16.45;71.65
68804;SHT31;55787;52.678;13.314;2022-11-02T09:18:22;16.59;67.77
68804;SHT31;55787;52.678;13.314;2022-11-02T09:20:49;17.22;66.11
68804;SHT31;55787;52.678;13.314;2022-11-02T09:23:18;16.64;65.13
68804;SHT31;55787;52.678;13.314;2022-11-02T09:25:44;16.29;66.98
68804;SHT31;55787;52.678;13.314;2022-11-02T09:28:11;18.04;64.58
68804;SHT31;55787;52.678;13.314;2022-11-02T09:30:39;18.57;60.06
68804;SHT31;55787;52.678;13.314;2022-11-02T09:33:06;18.57;59.48
68804;SHT31;55787;52.678;13.314;2022-11-02T09:35:36;18.73;57.77
68804;SHT31;55787;52.678;13.314;2022-11-02T09:38:03;20.63;54.66
68804;SHT31;55787;52.678;13.314;2022-11-02T09:40:42;19.85;54.58
68804;SHT31;55787;52.678;13.314;2022-11-02T09:43:35;19.92;55.29
68804;SHT31;55787;52.678;13.314;2022-11-02T09:46:07;20.14;55.06
68804;SHT31;55787;52.678;13.314;2022-11-02T09:48:44;19.50;55.49
68804;SHT31;55787;52.678;13.314;2022-11-02T09:51:18;20.02;54.57
68804;SHT31;55787;52.678;13.314;2022-11-02T09:56:21;18.37;56.89
68804;SHT31;55787;52.678;13.314;2022-11-02T09:58:53;16.97;61.43
68804;SHT31;55787;52.678;13.314;2022-11-02T10:01:34;16.81;63.21
68804;SHT31;55787;52.678;13.314;2022-11-02T10:04:33;15.90;65.52
68804;SHT31;55787;52.678;13.314;2022-11-02T10:07:18;15.80;65.83
68804;SHT31;55787;52.678;13.314;2022-11-02T10:09:56;15.65;65.46
68804;SHT31;55787;52.678;13.314;2022-11-02T10:13:41;15.30;66.89
68804;SHT31;55787;52.678;13.314;2022-11-02T10:15:38;15.19;67.72
68804;SHT31;55787;52.678;13.314;2022-11-02T10:18:34;14.93;66.75
68804;SHT31;55787;52.678;13.314;2022-11-02T10:21:05;15.07;68.59
68804;SHT31;55787;52.678;13.314;2022-11-02T10:23:54;15.00;68.49
68804;SHT31;55787;52.678;13.314;2022-11-02T10:26:25;14.75;68.96
68804;SHT31;55787;52.678;13.314;2022-11-02T10:28:57;14.88;68.89
68804;SHT31;55787;52.678;13.314;2022-11-02T10:31:29;14.81;68.20
68804;SHT31;55787;52.678;13.314;2022-11-02T10:34:04;14.79;68.64
68804;SHT31;55787;52.678;13.314;2022-11-02T10:47:23;14.69;69.51
68804;SHT31;55787;52.678;13.314;2022-11-02T10:52:51;14.78;69.54
68804;SHT31;55787;52.678;13.314;2022-11-02T10:55:35;14.75;67.98
68804;SHT31;55787;52.678;13.314;2022-11-02T10:58:10;14.86;69.39
68804;SHT31;55787;52.678;13.314;2022-11-02T11:00:41;14.93;67.17
68804;SHT31;55787;52.678;13.314;2022-11-02T11:03:13;14.96;67.46
68804;SHT31;55787;52.678;13.314;2022-11-02T11:08:40;14.93;66.52
68804;SHT31;55787;52.678;13.314;2022-11-02T11:11:10;14.95;66.34
68804;SHT31;55787;52.678;13.314;2022-11-02T11:13:40;14.99;66.29
68804;SHT31;55787;52.678;13.314;2022-11-02T11:16:31;15.19;65.90
68804;SHT31;55787;52.678;13.314;2022-11-02T11:18:59;15.41;64.73
68804;SHT31;55787;52.678;13.314;2022-11-02T11:21:45;15.41;66.65
68804;SHT31;55787;52.678;13.314;2022-11-02T11:24:22;15.39;64.76
68804;SHT31;55787;52.678;13.314;2022-11-02T11:29:34;15.30;66.16
68804;SHT31;55787;52.678;13.314;2022-11-02T11:32:01;15.36;65.71
68804;SHT31;55787;52.678;13.314;2022-11-02T11:34:32;15.30;65.95
68804;SHT31;55787;52.678;13.314;2022-11-02T11:37:08;15.64;65.17
68804;SHT31;55787;52.678;13.314;2022-11-02T11:39:38;15.77;65.15
68804;SHT31;55787;52.678;13.314;2022-11-02T11:42:14;15.55;65.21
68804;SHT31;55787;52.678;13.314;2022-11-02T11:44:54;15.57;64.90
68804;SHT31;55787;52.678;13.314;2022-11-02T11:47:26;15.61;65.82
68804;SHT31;55787;52.678;13.314;2022-11-02T11:49:54;15.49;64.27
68804;SHT31;55787;52.678;13.314;2022-11-02T11:52:41;15.67;63.89
68804;SHT31;55787;52.678;13.314;2022-11-02T11:55:21;15.55;64.07
68804;SHT31;55787;52.678;13.314;2022-11-02T12:00:40;15.51;64.30
68804;SHT31;55787;52.678;13.314;2022-11-02T12:03:09;15.60;64.46
68804;SHT31;55787;52.678;13.314;2022-11-02T12:20:12;15.33;64.87
68804;SHT31;55787;52.678;13.314;2022-11-02T12:28:19;15.19;65.67
68804;SHT31;55787;52.678;13.314;2022-11-02T12:34:06;15.26;64.45
68804;SHT31;55787;52.678;13.314;2022-11-02T12:37:01;15.34;64.45
68804;SHT31;55787;52.678;13.314;2022-11-02T12:40:01;15.94;62.62
68804;SHT31;55787;52.678;13.314;2022-11-02T12:42:31;15.88;60.47
68804;SHT31;55787;52.678;13.314;2022-11-02T12:47:56;16.22;59.84
68804;SHT31;55787;52.678;13.314;2022-11-02T12:55:58;15.37;60.11
68804;SHT31;55787;52.678;13.314;2022-11-02T12:58:28;15.64;58.83
68804;SHT31;55787;52.678;13.314;2022-11-02T13:01:04;15.68;58.35
68804;SHT31;55787;52.678;13.314;2022-11-02T13:03:46;15.85;59.03
68804;SHT31;55787;52.678;13.314;2022-11-02T13:06:16;16.22;58.07
68804;SHT31;55787;52.678;13.314;2022-11-02T13:11:39;15.77;59.28
68804;SHT31;55787;52.678;13.314;2022-11-02T13:14:17;15.36;57.23
68804;SHT31;55787;52.678;13.314;2022-11-02T13:17:04;15.07;58.98
68804;SHT31;55787;52.678;13.314;2022-11-02T13:20:08;15.04;58.29
68804;SHT31;55787;52.678;13.314;2022-11-02T13:22:39;15.19;60.89
68804;SHT31;55787;52.678;13.314;2022-11-02T13:25:15;15.14;58.78
68804;SHT31;55787;52.678;13.314;2022-11-02T13:27:51;15.27;59.52
68804;SHT31;55787;52.678;13.314;2022-11-02T13:30:19;15.72;56.89
68804;SHT31;55787;52.678;13.314;2022-11-02T13:32:56;16.00;57.10
68804;SHT31;55787;52.678;13.314;2022-11-02T13:35:26;16.18;56.52
68804;SHT31;55787;52.678;13.314;2022-11-02T13:38:03;16.15;55.25
68804;SHT31;55787;52.678;13.314;2022-11-02T13:40:44;15.98;56.82
68804;SHT31;55787;52.678;13.314;2022-11-02T13:48:46;15.88;56.33
68804;SHT31;55787;52.678;13.314;2022-11-02T13:51:33;16.21;56.34
68804;SHT31;55787;52.678;13.314;2022-11-02T13:54:11;16.29;54.09
68804;SHT31;55787;52.678;13.314;2022-11-02T13:56:39;16.13;55.40
68804;SHT31;55787;52.678;13.314;2022-11-02T13:59:08;16.01;55.09
68804;SHT31;55787;52.678;13.314;2022-11-02T14:01:39;15.81;54.46
68804;SHT31;55787;52.678;13.314;2022-11-02T14:04:08;15.88;53.67
68804;SHT31;55787;52.678;13.314;2022-11-02T14:06:55;15.75;54.50
68804;SHT31;55787;52.678;13.314;2022-11-02T14:09:42;15.63;54.93
68804;SHT31;55787;52.678;13.314;2022-11-02T14:14:43;15.50;55.52
68804;SHT31;55787;52.678;13.314;2022-11-02T14:17:11;15.10;56.79
68804;SHT31;55787;52.678;13.314;2022-11-02T14:19:48;14.86;57.97
68804;SHT31;55787;52.678;13.314;2022-11-02T14:22:19;14.81;59.22
68804;SHT31;55787;52.678;13.314;2022-11-02T14:40:43;14.07;60.01
68804;SHT31;55787;52.678;13.314;2022-11-02T14:45:59;14.06;57.91
68804;SHT31;55787;52.678;13.314;2022-11-02T14:48:50;13.99;59.03
68804;SHT31;55787;52.678;13.314;2022-11-02T14:51:29;13.89;59.71
68804;SHT31;55787;52.678;13.314;2022-11-02T14:54:17;13.73;60.85
68804;SHT31;55787;52.678;13.314;2022-11-02T14:56:54;13.70;60.44
68804;SHT31;55787;52.678;13.314;2022-11-02T14:59:26;13.62;60.17
68804;SHT31;55787;52.678;13.314;2022-11-02T15:02:04;13.61;60.33
68804;SHT31;55787;52.678;13.314;2022-11-02T15:04:33;13.52;59.11
68804;SHT31;55787;52.678;13.314;2022-11-02T15:07:02;13.42;59.48
68804;SHT31;55787;52.678;13.314;2022-11-02T15:09:53;13.38;60.55
68804;SHT31;55787;52.678;13.314;2022-11-02T15:12:41;13.24;60.92
68804;SHT31;55787;52.678;13.314;2022-11-02T15:15:33;13.16;59.79
68804;SHT31;55787;52.678;13.314;2022-11-02T15:18:20;13.10;59.74
68804;SHT31;55787;52.678;13.314;2022-11-02T15:23:43;13.05;59.67
68804;SHT31;55787;52.678;13.314;2022-11-02T15:26:23;12.93;60.01
68804;SHT31;55787;52.678;13.314;2022-11-02T15:28:54;12.87;60.76
68804;SHT31;55787;52.678;13.314;2022-11-02T15:31:23;12.80;60.80
68804;SHT31;55787;52.678;13.314;2022-11-02T15:34:02;12.74;60.99
68804;SHT31;55787;52.678;13.314;2022-11-02T15:36:34;12.71;61.10
68804;SHT31;55787;52.678;13.314;2022-11-02T15:39:04;12.53;62.39
68804;SHT31;55787;52.678;13.314;2022-11-02T15:41:56;12.44;62.46
68804;SHT31;55787;52.678;13.314;2022-11-02T15:53:04;12.18;63.98
68804;SHT31;55787;52.678;13.314;2022-11-02T15:58:32;11.98;65.18
68804;SHT31;55787;52.678;13.314;2022-11-02T16:01:14;11.84;66.00
68804;SHT31;55787;52.678;13.314;2022-11-02T16:03:44;11.64;67.33
68804;SHT31;55787;52.678;13.314;2022-11-02T16:06:12;11.72;64.96
68804;SHT31;55787;52.678;13.314;2022-11-02T16:08:39;11.71;65.00
68804;SHT31;55787;52.678;13.314;2022-11-02T16:11:18;11.70;65.19
68804;SHT31;55787;52.678;13.314;2022-11-02T16:13:46;11.62;65.39
68804;SHT31;55787;52.678;13.314;2022-11-02T16:16:44;11.58;65.49
68804;SHT31;55787;52.678;13.314;2022-11-02T16:19:20;11.50;66.49
68804;SHT31;55787;52.678;13.314;2022-11-02T16:21:48;11.37;67.21
68804;SHT31;55787;52.678;13.314;2022-11-02T16:24:15;11.24;68.02
68804;SHT31;55787;52.678;13.314;2022-11-02T16:26:43;11.28;66.33
68804;SHT31;55787;52.678;13.314;2022-11-02T16:29:14;11.26;66.36
68804;SHT31;55787;52.678;13.314;2022-11-02T16:31:46;11.22;66.35
68804;SHT31;55787;52.678;13.314;2022-11-02T16:36:44;10.97;67.34
68804;SHT31;55787;52.678;13.314;2022-11-02T16:39:26;10.88;68.97
68804;SHT31;55787;52.678;13.314;2022-11-02T16:41:55;10.82;68.39
68804;SHT31;55787;52.678;13.314;2022-11-02T16:44:27;10.69;69.56
68804;SHT31;55787;52.678;13.314;2022-11-02T16:49:34;10.54;69.77
68804;SHT31;55787;52.678;13.314;2022-11-02T16:52:22;10.34;70.78
68804;SHT31;55787;52.678;13.314;2022-11-02T16:54:49;10.21;71.91
68804;SHT31;55787;52.678;13.314;2022-11-02T16:57:24;10.24;70.24
68804;SHT31;55787;52.678;13.314;2022-11-02T17:00:00;10.21;71.28
68804;SHT31;55787;52.678;13.314;2022-11-02T17:05:04;10.34;69.68
68804;SHT31;55787;52.678;13.314;2022-11-02T17:07:39;10.17;71.62
68804;SHT31;55787;52.678;13.314;2022-11-02T17:10:08;10.17;70.69
68804;SHT31;55787;52.678;13.314;2022-11-02T17:12:43;10.14;70.58
68804;SHT31;55787;52.678;13.314;2022-11-02T17:15:21;10.34;69.55
68804;SHT31;55787;52.678;13.314;2022-11-02T17:17:49;10.22;70.28
68804;SHT31;55787;52.678;13.314;2022-11-02T17:20:19;10.05;71.51
68804;SHT31;55787;52.678;13.314;2022-11-02T17:22:57;10.05;70.54
68804;SHT31;55787;52.678;13.314;2022-11-02T17:25:38;9.95;71.89
68804;SHT31;55787;52.678;13.314;2022-11-02T17:31:00;9.69;73.11
68804;SHT31;55787;52.678;13.314;2022-11-02T17:33:29;9.59;73.81
68804;SHT31;55787;52.678;13.314;2022-11-02T17:36:03;9.40;75.78
68804;SHT31;55787;52.678;13.314;2022-11-02T17:38:31;9.19;76.71
68804;SHT31;55787;52.678;13.314;2022-11-02T17:40:59;9.10;75.66
68804;SHT31;55787;52.678;13.314;2022-11-02T17:43:26;9.10;75.09
68804;SHT31;55787;52.678;13.314;2022-11-02T17:45:54;9.07;74.96
68804;SHT31;55787;52.678;13.314;2022-11-02T17:48:21;8.89;77.21
68804;SHT31;55787;52.678;13.314;2022-11-02T17:50:54;8.77;77.43
68804;SHT31;55787;52.678;13.314;2022-11-02T17:53:22;8.68;78.06
68804;SHT31;55787;52.678;13.314;2022-11-02T17:55:49;8.57;78.99
68804;SHT31;55787;52.678;13.314;2022-11-02T17:58:16;8.53;77.70
68804;SHT31;55787;52.678;13.314;2022-11-02T18:00:43;8.43;78.99
68804;SHT31;55787;52.678;13.314;2022-11-02T18:03:13;8.34;79.48